Time;durP1;ratioP1;P1;durP2;ratioP2;P2;SDS_P1;SDS_P2;PMS_P1;PMS_P2;Temp;Humidity;BMP_temperature;BMP_pressure;BME280_temperature;BME280_humidity;BME280_pressure;Samples;Min_cycle;Max_cycle;Signal;HPM_P1;HPM_P2
2022/10/09 00:01:15;;;;;;;8.73;2.75;;;11.90;99.10;;;;;;5002179;28;20046;-70
2022/10/09 00:03:43;;;;;;;5.22;2.33;;;11.90;99.20;;;;;;5004199;28;20026;-71
2022/10/09 00:06:11;;;;;;;7.47;2.67;;;11.90;99.20;;;;;;4988184;28;20112;-71
2022/10/09 00:08:42;;;;;;;6.97;2.40;;;11.90;99.20;;;;;;5001681;28;20026;-70
2022/10/09 00:11:12;;;;;;;6.00;2.67;;;11.90;99.30;;;;;;5013859;28;20034;-70
2022/10/09 00:13:38;;;;;;;5.63;2.50;;;11.80;99.30;;;;;;5010679;28;20033;-71
2022/10/09 00:16:06;;;;;;;4.40;2.40;;;11.80;99.30;;;;;;4994684;28;20048;-70
2022/10/09 00:18:32;;;;;;;4.47;2.25;;;11.80;99.30;;;;;;4998567;28;20042;-69
2022/10/09 00:20:58;;;;;;;4.35;2.60;;;11.80;99.40;;;;;;5008012;28;20091;-69
2022/10/09 00:23:24;;;;;;;4.35;2.35;;;11.80;99.40;;;;;;4999411;28;20017;-70
2022/10/09 00:25:52;;;;;;;6.25;2.45;;;11.80;99.40;;;;;;4997469;28;20035;-70
2022/10/09 00:28:17;;;;;;;3.78;2.40;;;11.80;99.50;;;;;;4995334;28;20023;-71
2022/10/09 00:30:43;;;;;;;10.00;3.45;;;11.80;99.40;;;;;;4995262;28;20033;-70
2022/10/09 00:33:09;;;;;;;4.35;2.45;;;11.80;99.50;;;;;;5010767;28;20058;-70
2022/10/09 00:35:37;;;;;;;6.43;2.42;;;11.80;99.50;;;;;;4999625;28;20033;-70
2022/10/09 00:38:03;;;;;;;5.63;2.75;;;11.80;99.60;;;;;;5004061;28;20035;-70
2022/10/09 00:40:28;;;;;;;6.55;2.58;;;11.80;99.60;;;;;;5002422;28;20393;-70
2022/10/09 00:42:58;;;;;;;6.93;2.15;;;11.80;99.60;;;;;;4998422;28;20079;-69
2022/10/09 00:45:24;;;;;;;6.40;2.55;;;11.80;99.60;;;;;;5011275;28;20168;-70
2022/10/09 00:47:54;;;;;;;5.85;2.63;;;11.80;99.60;;;;;;5003165;28;20026;-70
2022/10/09 00:50:33;;;;;;;6.38;2.53;;;11.80;99.60;;;;;;5003954;28;20042;-69
2022/10/09 00:53:00;;;;;;;4.53;2.35;;;11.80;99.60;;;;;;5000292;28;20037;-70
2022/10/09 00:55:28;;;;;;;7.13;3.20;;;11.70;99.60;;;;;;5002889;28;20086;-70
2022/10/09 00:57:56;;;;;;;6.35;2.85;;;11.70;99.60;;;;;;4999129;28;20065;-71
2022/10/09 01:00:22;;;;;;;8.95;3.13;;;11.70;99.60;;;;;;4996168;28;20092;-69
2022/10/09 01:02:49;;;;;;;5.18;2.47;;;11.70;99.60;;;;;;4996107;28;20493;-70
2022/10/09 01:05:14;;;;;;;7.30;2.67;;;11.70;99.60;;;;;;5003358;28;20026;-69
2022/10/09 01:07:49;;;;;;;4.68;2.83;;;11.70;99.60;;;;;;4988429;28;20027;-69
2022/10/09 01:10:26;;;;;;;;;;;11.70;99.70;;;;;;4988401;28;20042;-70
2022/10/09 01:13:04;;;;;;;6.38;2.40;;;11.70;99.50;;;;;;4990699;28;19909;-70
2022/10/09 01:15:35;;;;;;;3.78;2.22;;;11.60;99.60;;;;;;5008558;28;20048;-70
2022/10/09 01:18:11;;;;;;;7.47;2.28;;;11.70;99.70;;;;;;5000458;28;20032;-70
2022/10/09 01:20:45;;;;;;;5.32;2.55;;;11.60;99.60;;;;;;4984262;28;20037;-71
2022/10/09 01:23:37;;;;;;;10.95;4.38;;;11.60;99.70;;;;;;4998826;28;20113;-71
2022/10/09 01:26:25;;;;;;;6.90;2.15;;;11.70;99.70;;;;;;4995733;28;20061;-70
2022/10/09 01:28:58;;;;;;;6.50;2.80;;;11.60;99.70;;;;;;4993680;28;20026;-70
2022/10/09 01:31:30;;;;;;;4.18;2.10;;;11.60;99.70;;;;;;5012284;28;20030;-71
2022/10/09 01:33:58;;;;;;;8.57;2.42;;;11.60;99.70;;;;;;4999231;28;20124;-71
2022/10/09 01:36:24;;;;;;;5.82;2.65;;;11.60;99.80;;;;;;5004702;28;20518;-72
2022/10/09 01:38:51;;;;;;;7.15;2.40;;;11.60;99.80;;;;;;4995659;28;20124;-71
2022/10/09 01:41:17;;;;;;;4.95;2.67;;;11.60;99.80;;;;;;5001477;28;20037;-71
2022/10/09 01:43:42;;;;;;;7.90;2.83;;;11.50;99.80;;;;;;5004412;28;20022;-71
2022/10/09 01:46:27;;;;;;;5.00;2.47;;;11.60;99.90;;;;;;4996088;28;20061;-71
2022/10/09 01:49:04;;;;;;;6.75;2.75;;;11.50;99.80;;;;;;4993789;28;20034;-71
2022/10/09 01:51:48;;;;;;;9.95;3.30;;;11.60;99.90;;;;;;4995696;28;20034;-71
2022/10/09 01:54:18;;;;;;;5.78;2.80;;;11.50;99.80;;;;;;5003924;28;20040;-71
2022/10/09 01:56:48;;;;;;;7.07;2.88;;;11.50;99.80;;;;;;4992504;28;20050;-71
2022/10/09 01:59:17;;;;;;;6.95;2.63;;;11.50;99.90;;;;;;4998900;28;20042;-72
2022/10/09 02:01:45;;;;;;;4.82;2.50;;;11.50;99.90;;;;;;5007198;28;20028;-71
2022/10/09 02:04:13;;;;;;;6.72;2.15;;;11.50;99.90;;;;;;4995023;28;20115;-72
2022/10/09 02:06:40;;;;;;;6.53;2.60;;;11.50;99.90;;;;;;5005245;28;20034;-71
2022/10/09 02:09:11;;;;;;;4.60;2.88;;;11.50;99.90;;;;;;5008942;28;20107;-71
2022/10/09 02:11:38;;;;;;;6.13;2.85;;;11.50;99.90;;;;;;4993713;28;20493;-71
2022/10/09 02:14:04;;;;;;;7.70;2.72;;;11.50;99.90;;;;;;4995664;28;20405;-72
2022/10/09 02:16:37;;;;;;;6.40;2.85;;;11.50;99.90;;;;;;5008082;28;20033;-71
2022/10/09 02:19:11;;;;;;;5.85;2.33;;;11.50;99.90;;;;;;4995432;28;20111;-72
2022/10/09 02:21:49;;;;;;;6.50;2.60;;;11.50;99.90;;;;;;5001257;28;20115;-72
2022/10/09 02:24:19;;;;;;;5.43;2.72;;;11.40;99.90;;;;;;4996179;28;20323;-71
2022/10/09 02:26:46;;;;;;;6.03;3.17;;;11.40;99.90;;;;;;5001172;28;20034;-72
2022/10/09 02:29:13;;;;;;;6.70;2.90;;;11.40;99.90;;;;;;5009663;28;20030;-73
2022/10/09 02:31:41;;;;;;;5.63;2.63;;;11.40;99.90;;;;;;5000239;28;20041;-71
2022/10/09 02:34:15;;;;;;;6.50;3.10;;;11.40;99.90;;;;;;4994479;28;20030;-71
2022/10/09 02:36:42;;;;;;;7.43;2.70;;;11.40;99.90;;;;;;5007028;28;20104;-72
2022/10/09 02:39:08;;;;;;;5.65;2.78;;;11.40;99.90;;;;;;5001470;28;20038;-72
2022/10/09 02:41:34;;;;;;;9.27;2.70;;;11.30;99.90;;;;;;5010599;28;20496;-72
2022/10/09 02:44:01;;;;;;;4.35;2.67;;;11.30;99.90;;;;;;5002674;28;20029;-71
2022/10/09 02:46:27;;;;;;;7.30;2.63;;;11.40;99.90;;;;;;4992759;28;20033;-70
2022/10/09 02:48:52;;;;;;;8.13;3.22;;;11.40;99.90;;;;;;4993734;28;20031;-70
2022/10/09 02:51:19;;;;;;;6.88;2.45;;;11.30;99.90;;;;;;4995273;28;20070;-70
2022/10/09 02:53:44;;;;;;;3.55;2.30;;;11.30;99.90;;;;;;4993840;28;20401;-70
2022/10/09 02:56:10;;;;;;;5.90;2.38;;;11.30;99.90;;;;;;4998179;28;20054;-70
2022/10/09 02:58:36;;;;;;;8.32;3.10;;;11.30;99.90;;;;;;4997342;28;20034;-70
2022/10/09 03:01:03;;;;;;;5.85;2.30;;;11.30;99.90;;;;;;5007755;28;20038;-70
2022/10/09 03:03:29;;;;;;;5.75;2.72;;;11.30;99.90;;;;;;5002336;28;20030;-70
2022/10/09 03:06:13;;;;;;;8.40;3.17;;;11.30;99.90;;;;;;5005835;28;20056;-70
2022/10/09 03:08:41;;;;;;;5.55;2.45;;;11.20;99.90;;;;;;5002405;28;20492;-70
2022/10/09 03:11:09;;;;;;;29.20;3.80;;;11.20;99.90;;;;;;5001532;28;20501;-70
2022/10/09 03:13:34;;;;;;;6.30;2.40;;;11.20;99.90;;;;;;5005851;28;20097;-71
2022/10/09 03:16:08;;;;;;;6.25;2.67;;;11.20;99.90;;;;;;4998592;28;20133;-71
2022/10/09 03:18:35;;;;;;;3.63;1.90;;;11.20;99.90;;;;;;4996847;28;20351;-71
2022/10/09 03:21:04;;;;;;;7.03;2.72;;;11.20;99.90;;;;;;5005643;28;20034;-70
2022/10/09 03:23:30;;;;;;;7.35;2.90;;;11.20;99.90;;;;;;5003739;28;20110;-71
2022/10/09 03:26:00;;;;;;;7.00;2.90;;;11.10;99.90;;;;;;5005405;28;20100;-70
2022/10/09 03:28:27;;;;;;;5.47;2.40;;;11.10;99.90;;;;;;5011627;28;20112;-71
2022/10/09 03:30:53;;;;;;;6.35;2.45;;;11.00;99.90;;;;;;5007947;28;20109;-71
2022/10/09 03:33:19;;;;;;;7.13;2.28;;;11.00;99.90;;;;;;5006483;28;20097;-71
2022/10/09 03:35:46;;;;;;;4.93;2.20;;;11.10;99.90;;;;;;4996109;28;20053;-71
2022/10/09 03:38:13;;;;;;;6.00;2.20;;;11.10;99.90;;;;;;4994953;28;20076;-72
2022/10/09 03:40:39;;;;;;;5.93;2.47;;;11.10;99.90;;;;;;5009298;28;20046;-72
2022/10/09 03:43:06;;;;;;;5.82;2.38;;;11.10;99.90;;;;;;5006764;28;20034;-72
2022/10/09 03:45:32;;;;;;;5.75;2.50;;;11.10;99.90;;;;;;5000991;28;20037;-72
2022/10/09 03:47:57;;;;;;;5.88;2.28;;;11.10;99.90;;;;;;5009624;28;20034;-72
2022/10/09 03:50:23;;;;;;;7.03;2.90;;;11.10;99.90;;;;;;5005755;28;20067;-72
2022/10/09 03:52:49;;;;;;;6.03;3.33;;;11.10;99.90;;;;;;5007481;28;20045;-72
2022/10/09 03:55:14;;;;;;;8.07;3.55;;;11.10;99.90;;;;;;4996198;28;20038;-72
2022/10/09 03:57:40;;;;;;;4.30;2.17;;;11.10;99.90;;;;;;5007665;28;20042;-71
2022/10/09 04:00:07;;;;;;;9.52;3.60;;;11.10;99.90;;;;;;4999155;28;20161;-71
2022/10/09 04:02:33;;;;;;;6.45;3.15;;;11.10;99.90;;;;;;4980706;28;20037;-71
2022/10/09 04:04:59;;;;;;;6.25;2.60;;;11.10;99.90;;;;;;5010336;28;20049;-70
2022/10/09 04:07:25;;;;;;;5.75;2.20;;;11.10;99.90;;;;;;5011240;28;20485;-72
2022/10/09 04:09:51;;;;;;;4.03;2.15;;;11.00;99.90;;;;;;4997775;28;20081;-71
2022/10/09 04:12:16;;;;;;;7.93;2.65;;;11.00;99.90;;;;;;5002336;28;20034;-71
2022/10/09 04:14:42;;;;;;;12.07;2.75;;;11.00;99.90;;;;;;4981636;28;20096;-71
2022/10/09 04:17:07;;;;;;;6.15;2.50;;;11.00;99.90;;;;;;5012190;28;20026;-71
2022/10/09 04:19:35;;;;;;;10.15;2.80;;;11.00;99.90;;;;;;4999217;28;20026;-71
2022/10/09 04:22:01;;;;;;;5.10;2.58;;;11.00;99.90;;;;;;4994618;28;20030;-72
2022/10/09 04:24:27;;;;;;;5.47;2.35;;;11.00;99.90;;;;;;5007069;28;20023;-72
2022/10/09 04:26:52;;;;;;;6.10;2.22;;;11.00;99.90;;;;;;5001473;28;20073;-72
2022/10/09 04:29:18;;;;;;;7.65;2.80;;;11.00;99.90;;;;;;4997383;28;20030;-72
2022/10/09 04:31:44;;;;;;;6.35;2.50;;;11.00;99.90;;;;;;5004249;28;20034;-71
2022/10/09 04:34:10;;;;;;;9.95;3.63;;;11.00;99.90;;;;;;4996593;28;20026;-72
2022/10/09 04:36:35;;;;;;;5.28;2.30;;;11.00;99.90;;;;;;5005437;28;20088;-72
2022/10/09 04:39:02;;;;;;;6.25;2.70;;;11.00;99.90;;;;;;5003933;28;20026;-71
2022/10/09 04:41:28;;;;;;;6.05;2.75;;;11.00;99.90;;;;;;5003306;28;20257;-71
2022/10/09 04:43:55;;;;;;;6.72;3.10;;;11.00;99.90;;;;;;4984023;28;20022;-72
2022/10/09 04:46:21;;;;;;;6.43;2.70;;;11.00;99.90;;;;;;5000978;28;20030;-71
2022/10/09 04:48:47;;;;;;;6.15;2.28;;;11.00;99.90;;;;;;5005740;28;20038;-71
2022/10/09 04:51:15;;;;;;;4.38;2.35;;;11.00;99.90;;;;;;4999279;28;20042;-71
2022/10/09 04:53:41;;;;;;;7.00;2.42;;;10.90;99.90;;;;;;4998488;28;20386;-70
2022/10/09 04:56:14;;;;;;;8.27;3.10;;;10.90;99.90;;;;;;4997447;28;20054;-70
2022/10/09 04:58:41;;;;;;;4.60;2.15;;;10.90;99.90;;;;;;4997660;28;20477;-70
2022/10/09 05:01:09;;;;;;;5.60;2.53;;;10.90;99.90;;;;;;5007944;28;20045;-71
2022/10/09 05:03:35;;;;;;;7.45;3.00;;;10.90;99.90;;;;;;4999978;28;20025;-70
2022/10/09 05:06:03;;;;;;;6.00;2.55;;;10.80;99.90;;;;;;5003284;28;20029;-71
2022/10/09 05:08:30;;;;;;;3.63;2.22;;;10.80;99.90;;;;;;5007073;28;20018;-73
2022/10/09 05:11:04;;;;;;;8.52;2.97;;;10.80;99.90;;;;;;5000974;28;20022;-74
2022/10/09 05:13:31;;;;;;;6.00;2.55;;;10.80;99.90;;;;;;5004153;28;20022;-74
2022/10/09 05:16:04;;;;;;;5.30;2.67;;;10.80;99.90;;;;;;5003574;28;20655;-73
2022/10/09 05:18:30;;;;;;;3.65;2.05;;;10.80;99.90;;;;;;4988615;28;20034;-74
2022/10/09 05:20:56;;;;;;;6.03;2.30;;;10.80;99.90;;;;;;4999537;28;20026;-74
2022/10/09 05:23:22;;;;;;;5.90;2.33;;;10.70;99.90;;;;;;5000694;28;20024;-74
2022/10/09 05:25:59;;;;;;;5.97;2.72;;;10.70;99.90;;;;;;5004364;28;20026;-74
2022/10/09 05:28:25;;;;;;;6.05;2.60;;;10.70;99.90;;;;;;4995302;28;20160;-73
2022/10/09 05:30:52;;;;;;;4.18;2.03;;;10.60;99.90;;;;;;4982291;28;20041;-74
2022/10/09 05:33:19;;;;;;;7.47;2.80;;;10.60;99.90;;;;;;4999406;28;20108;-73
2022/10/09 05:35:52;;;;;;;4.97;2.65;;;10.60;99.90;;;;;;4999819;28;20489;-74
2022/10/09 05:38:19;;;;;;;6.25;2.55;;;10.60;99.90;;;;;;4995812;28;20026;-72
2022/10/09 05:41:00;;;;;;;7.00;2.70;;;10.60;99.90;;;;;;4999964;28;20168;-73
2022/10/09 05:43:37;;;;;;;9.38;3.25;;;10.50;99.90;;;;;;4997675;28;20061;-73
2022/10/09 05:46:04;;;;;;;5.13;2.70;;;10.50;99.90;;;;;;4998721;28;20026;-74
2022/10/09 05:48:30;;;;;;;3.95;1.92;;;10.50;99.90;;;;;;4996413;28;20450;-73
2022/10/09 05:51:10;;;;;;;6.28;2.78;;;10.50;99.90;;;;;;4994760;28;20117;-73
2022/10/09 05:53:36;;;;;;;4.13;2.50;;;10.50;99.90;;;;;;5000506;28;20038;-73
2022/10/09 05:56:18;;;;;;;6.05;3.78;;;10.50;99.90;;;;;;4997114;28;20050;-73
2022/10/09 05:58:50;;;;;;;6.95;2.60;;;10.50;99.90;;;;;;4998174;28;20076;-69
2022/10/09 06:01:16;;;;;;;5.75;2.78;;;10.50;99.90;;;;;;4992563;28;20030;-70
2022/10/09 06:03:46;;;;;;;5.88;3.15;;;10.50;99.90;;;;;;4988772;28;20045;-70
2022/10/09 06:06:11;;;;;;;7.50;3.28;;;10.50;99.90;;;;;;5004643;28;20051;-70
2022/10/09 06:08:38;;;;;;;6.32;2.72;;;10.50;99.90;;;;;;4996078;28;20362;-70
2022/10/09 06:11:11;;;;;;;8.30;3.25;;;10.60;99.90;;;;;;4995094;28;20034;-69
2022/10/09 06:13:37;;;;;;;4.85;2.70;;;10.60;99.90;;;;;;4998909;28;20111;-69
2022/10/09 06:16:02;;;;;;;5.53;2.70;;;10.60;99.90;;;;;;4995663;28;20042;-69
2022/10/09 06:18:28;;;;;;;8.45;3.25;;;10.60;99.90;;;;;;4992884;28;20030;-70
2022/10/09 06:20:55;;;;;;;4.55;2.83;;;10.60;99.90;;;;;;4997694;28;20037;-69
2022/10/09 06:23:21;;;;;;;5.22;3.00;;;10.50;99.90;;;;;;4992220;28;20029;-70
2022/10/09 06:25:51;;;;;;;4.68;3.05;;;10.60;99.90;;;;;;5004425;28;20026;-69
2022/10/09 06:28:17;;;;;;;5.00;2.65;;;10.50;99.90;;;;;;4986196;28;20060;-70
2022/10/09 06:30:43;;;;;;;7.68;3.05;;;10.60;99.90;;;;;;5000937;28;20285;-70
2022/10/09 06:33:08;;;;;;;7.00;3.55;;;10.60;99.90;;;;;;5006693;28;20030;-69
2022/10/09 06:35:34;;;;;;;9.63;3.25;;;10.60;99.90;;;;;;5009871;28;20042;-70
2022/10/09 06:37:59;;;;;;;6.60;3.17;;;10.70;99.90;;;;;;4999812;28;20022;-69
2022/10/09 06:40:25;;;;;;;11.77;3.85;;;10.70;99.90;;;;;;5012469;28;20124;-70
2022/10/09 06:42:50;;;;;;;7.07;3.05;;;10.70;99.90;;;;;;4996427;28;20026;-69
2022/10/09 06:45:16;;;;;;;4.40;3.10;;;10.80;99.90;;;;;;5003069;28;20551;-69
2022/10/09 06:47:42;;;;;;;7.50;3.60;;;10.80;99.90;;;;;;5008361;28;20022;-71
2022/10/09 06:50:08;;;;;;;6.15;3.17;;;10.80;99.90;;;;;;5009330;28;20461;-71
2022/10/09 06:52:33;;;;;;;9.25;3.55;;;10.80;99.90;;;;;;5001950;28;20049;-70
2022/10/09 06:55:00;;;;;;;7.18;3.40;;;10.80;99.90;;;;;;5008144;28;20034;-71
2022/10/09 06:57:26;;;;;;;7.03;3.42;;;10.90;99.90;;;;;;5008779;28;20073;-71
2022/10/09 06:59:51;;;;;;;6.53;3.17;;;10.90;99.90;;;;;;5010447;28;20553;-71
2022/10/09 07:02:17;;;;;;;7.72;3.47;;;10.90;99.90;;;;;;5006865;28;20068;-71
2022/10/09 07:04:43;;;;;;;7.60;2.80;;;11.00;99.90;;;;;;5008175;28;20081;-70
2022/10/09 07:07:09;;;;;;;7.13;3.50;;;11.00;99.90;;;;;;5003606;28;20042;-71
2022/10/09 07:09:34;;;;;;;6.40;3.22;;;11.10;99.90;;;;;;4997080;28;20030;-71
2022/10/09 07:12:00;;;;;;;5.93;3.47;;;11.10;99.90;;;;;;5000017;28;20048;-71
2022/10/09 07:14:28;;;;;;;5.55;2.88;;;11.20;99.90;;;;;;5008007;28;20030;-71
2022/10/09 07:16:53;;;;;;;9.55;3.22;;;11.20;99.90;;;;;;5004628;28;20181;-71
2022/10/09 07:19:20;;;;;;;6.07;3.10;;;11.30;99.90;;;;;;4997988;28;20121;-72
2022/10/09 07:21:47;;;;;;;6.80;3.30;;;11.30;99.90;;;;;;5001327;28;20474;-72
2022/10/09 07:24:14;;;;;;;7.13;4.13;;;11.30;99.90;;;;;;4996057;28;20053;-70
2022/10/09 07:26:42;;;;;;;12.02;4.70;;;11.30;99.90;;;;;;4996618;28;20030;-72
2022/10/09 07:29:09;;;;;;;7.97;3.67;;;11.40;99.90;;;;;;5006849;28;20358;-72
2022/10/09 07:31:35;;;;;;;5.97;2.92;;;11.40;99.90;;;;;;5001834;28;20034;-72
2022/10/09 07:34:05;;;;;;;7.47;3.13;;;11.50;99.90;;;;;;5005242;28;20046;-71
2022/10/09 07:36:31;;;;;;;7.15;3.13;;;11.50;99.90;;;;;;5004148;28;20034;-71
2022/10/09 07:38:58;;;;;;;9.55;4.35;;;11.60;99.90;;;;;;5001957;28;20022;-70
2022/10/09 07:41:26;;;;;;;8.13;4.32;;;11.60;99.90;;;;;;4997734;28;20022;-71
2022/10/09 07:43:52;;;;;;;8.57;3.72;;;11.70;99.90;;;;;;4989095;28;20050;-71
2022/10/09 07:46:19;;;;;;;6.07;3.40;;;11.70;99.90;;;;;;4991498;28;20754;-71
2022/10/09 07:48:47;;;;;;;5.32;3.15;;;11.80;99.90;;;;;;5002872;28;20045;-70
2022/10/09 07:51:25;;;;;;;6.55;4.25;;;11.80;99.90;;;;;;4991547;28;20501;-71
2022/10/09 07:53:51;;;;;;;7.80;3.60;;;11.90;99.90;;;;;;5011573;28;20030;-71
2022/10/09 07:56:18;;;;;;;7.55;3.88;;;11.90;99.90;;;;;;5004984;28;20053;-71
2022/10/09 07:58:49;;;;;;;9.05;4.10;;;11.90;99.90;;;;;;4992722;28;20156;-72
2022/10/09 08:01:14;;;;;;;5.93;3.63;;;12.00;99.90;;;;;;5005282;28;20030;-72
2022/10/09 08:03:40;;;;;;;7.10;3.67;;;12.00;99.90;;;;;;5010234;28;20366;-72
2022/10/09 08:06:06;;;;;;;7.65;3.50;;;12.10;99.90;;;;;;5012245;28;20149;-72
2022/10/09 08:08:32;;;;;;;7.60;3.40;;;12.10;99.90;;;;;;5006905;28;20022;-72
2022/10/09 08:10:58;;;;;;;7.43;3.38;;;12.20;99.90;;;;;;5004069;28;20034;-73
2022/10/09 08:13:23;;;;;;;8.23;3.65;;;12.20;99.90;;;;;;4998341;28;20046;-72
2022/10/09 08:15:50;;;;;;;12.05;4.47;;;12.20;99.90;;;;;;5012210;28;20057;-71
2022/10/09 08:18:16;;;;;;;9.65;4.40;;;12.30;99.90;;;;;;5013717;28;20030;-72
2022/10/09 08:20:42;;;;;;;8.90;3.45;;;12.30;99.90;;;;;;4994060;28;20358;-71
2022/10/09 08:23:07;;;;;;;13.55;4.78;;;12.40;99.90;;;;;;4997414;28;20038;-72
2022/10/09 08:25:35;;;;;;;11.05;4.30;;;12.40;99.90;;;;;;4999802;28;20404;-72
2022/10/09 08:28:01;;;;;;;9.90;3.53;;;12.50;99.90;;;;;;5000023;28;20026;-71
2022/10/09 08:30:26;;;;;;;6.13;3.25;;;12.50;99.90;;;;;;5011750;28;20022;-70
2022/10/09 08:32:52;;;;;;;6.50;4.40;;;12.50;99.90;;;;;;5003230;28;20469;-71
2022/10/09 08:35:18;;;;;;;8.68;3.70;;;12.60;99.90;;;;;;5001384;28;20045;-71
2022/10/09 08:37:43;;;;;;;7.50;3.78;;;12.70;99.90;;;;;;4993085;28;20037;-69
2022/10/09 08:40:25;;;;;;;6.35;3.25;;;12.70;99.90;;;;;;5002752;28;20092;-71
2022/10/09 08:43:04;;;;;;;5.25;2.75;;;12.70;99.90;;;;;;5001957;28;20041;-71
2022/10/09 08:45:37;;;;;;;12.88;3.95;;;12.80;99.90;;;;;;5007809;28;20040;-70
2022/10/09 08:48:18;;;;;;;10.95;4.57;;;12.90;99.90;;;;;;5000747;28;20025;-72
2022/10/09 08:50:49;;;;;;;5.35;2.88;;;12.90;99.90;;;;;;4999503;28;20482;-69
2022/10/09 08:53:39;;;;;;;9.05;3.08;;;13.00;99.90;;;;;;4998195;28;20022;-71
2022/10/09 08:56:10;;;;;;;8.15;4.00;;;13.00;99.90;;;;;;4985447;28;20648;-73
2022/10/09 08:58:39;;;;;;;10.15;4.00;;;13.10;99.90;;;;;;4996568;28;20099;-70
2022/10/09 09:01:22;;;;;;;6.72;3.05;;;13.20;99.90;;;;;;5002400;28;20512;-73
2022/10/09 09:04:03;;;;;;;6.78;3.25;;;13.20;99.90;;;;;;5005402;28;20481;-73
2022/10/09 09:06:54;;;;;;;5.68;3.60;;;13.30;99.90;;;;;;5012189;28;20397;-71
2022/10/09 09:09:42;;;;;;;8.27;2.97;;;13.30;99.90;;;;;;4994504;28;20026;-72
2022/10/09 09:12:16;;;;;;;7.68;3.28;;;13.30;99.90;;;;;;5004660;28;20358;-69
2022/10/09 09:15:08;;;;;;;5.50;3.03;;;13.30;99.90;;;;;;5009240;28;20041;-71
2022/10/09 09:17:45;;;;;;;6.72;3.78;;;13.40;99.90;;;;;;4973471;28;20401;-71
2022/10/09 09:20:29;;;;;;;8.30;3.58;;;13.40;99.90;;;;;;5011543;28;20025;-70
2022/10/09 09:22:59;;;;;;;7.07;3.78;;;13.50;99.80;;;;;;4988684;28;20614;-70
2022/10/09 09:25:29;;;;;;;8.77;3.75;;;13.50;99.70;;;;;;4995875;28;20038;-71
2022/10/09 09:28:16;;;;;;;16.83;4.25;;;13.60;99.70;;;;;;5007995;28;20559;-71
2022/10/09 09:30:48;;;;;;;10.27;3.90;;;13.70;99.60;;;;;;5006345;28;20045;-70
2022/10/09 09:33:23;;;;;;;7.95;3.83;;;13.70;99.60;;;;;;5002884;28;20029;-70
2022/10/09 09:36:10;;;;;;;13.25;4.22;;;13.80;99.50;;;;;;4997964;28;20049;-69
2022/10/09 09:38:36;;;;;;;6.22;3.25;;;13.80;99.50;;;;;;4999116;28;20572;-70
2022/10/09 09:41:03;;;;;;;8.52;3.40;;;13.80;99.40;;;;;;4992756;28;20105;-70
2022/10/09 09:43:29;;;;;;;12.48;3.17;;;13.90;99.40;;;;;;5001007;28;20643;-70
2022/10/09 09:45:58;;;;;;;8.70;3.22;;;14.00;99.30;;;;;;5002029;28;20029;-70
2022/10/09 09:48:32;;;;;;;6.70;2.83;;;14.00;99.10;;;;;;5008027;28;20131;-71
2022/10/09 09:50:59;;;;;;;10.40;3.28;;;14.10;99.00;;;;;;5003777;28;20033;-70
2022/10/09 09:53:30;;;;;;;9.57;2.90;;;14.10;99.00;;;;;;4982711;28;20046;-70
2022/10/09 09:55:56;;;;;;;12.25;3.45;;;14.10;98.90;;;;;;4999434;28;20156;-71
2022/10/09 09:58:31;;;;;;;9.70;3.00;;;14.20;99.10;;;;;;5004481;28;20018;-70
2022/10/09 10:01:02;;;;;;;10.18;3.17;;;14.20;98.70;;;;;;5011747;28;20029;-70
2022/10/09 10:03:28;;;;;;;9.77;3.30;;;14.30;98.60;;;;;;4990245;28;20022;-71
2022/10/09 10:05:54;;;;;;;6.57;2.72;;;14.30;98.60;;;;;;5002372;28;20091;-70
2022/10/09 10:08:20;;;;;;;4.97;2.90;;;14.40;98.60;;;;;;5010772;28;20037;-71
2022/10/09 10:10:46;;;;;;;10.27;3.25;;;14.40;98.40;;;;;;4986687;28;20041;-70
2022/10/09 10:13:23;;;;;;;10.35;3.75;;;14.50;98.40;;;;;;5008870;28;20069;-70
2022/10/09 10:15:53;;;;;;;7.97;3.35;;;14.60;98.10;;;;;;5005150;28;20080;-71
2022/10/09 10:18:21;;;;;;;4.80;2.95;;;14.60;98.10;;;;;;5006013;28;20038;-69
2022/10/09 10:20:54;;;;;;;9.07;2.70;;;14.70;98.10;;;;;;5009436;28;20036;-69
2022/10/09 10:23:23;;;;;;;6.60;2.38;;;14.80;98.10;;;;;;5010839;28;20018;-70
2022/10/09 10:25:53;;;;;;;7.78;2.70;;;14.80;98.10;;;;;;5010889;28;20099;-70
2022/10/09 10:28:29;;;;;;;10.10;3.50;;;14.90;98.00;;;;;;5009391;28;20022;-71
2022/10/09 10:30:56;;;;;;;8.15;2.20;;;15.00;97.80;;;;;;5009316;28;20037;-72
2022/10/09 10:33:28;;;;;;;7.75;2.10;;;15.00;97.60;;;;;;5011061;28;20030;-70
2022/10/09 10:35:56;;;;;;;5.28;2.20;;;15.10;97.20;;;;;;5008546;28;20490;-70
2022/10/09 10:38:26;;;;;;;6.00;2.63;;;15.10;97.20;;;;;;5003340;28;20069;-69
2022/10/09 10:41:07;;;;;;;6.95;2.60;;;15.20;97.10;;;;;;5005969;28;20022;-71
2022/10/09 10:43:51;;;;;;;5.22;2.00;;;15.20;97.10;;;;;;5015813;28;20089;-70
2022/10/09 10:46:25;;;;;;;7.30;2.57;;;15.30;97.00;;;;;;5010752;28;20030;-70
2022/10/09 10:48:51;;;;;;;6.88;1.80;;;15.40;96.90;;;;;;5013766;28;20277;-70
2022/10/09 10:51:38;;;;;;;5.15;2.00;;;15.50;96.70;;;;;;5013551;28;20030;-70
2022/10/09 10:54:19;;;;;;;8.35;2.42;;;15.50;96.50;;;;;;5003126;28;20044;-70
2022/10/09 10:56:54;;;;;;;8.57;2.00;;;15.60;96.20;;;;;;5009530;28;20073;-70
2022/10/09 10:59:48;;;;;;;8.43;3.67;;;15.60;96.10;;;;;;5005563;28;20038;-70
2022/10/09 11:02:40;;;;;;;6.07;1.90;;;15.60;96.00;;;;;;5007115;28;20061;-71
2022/10/09 11:05:28;;;;;;;6.63;2.25;;;15.60;96.00;;;;;;5007787;28;20030;-70
2022/10/09 11:08:19;;;;;;;6.97;1.85;;;15.70;96.00;;;;;;5008869;28;20121;-70
2022/10/09 11:11:18;;;;;;;5.07;2.17;;;15.70;95.90;;;;;;4982720;28;20068;-69
2022/10/09 11:13:54;;;;;;;4.60;1.98;;;15.80;95.80;;;;;;4992613;28;20029;-72
2022/10/09 11:16:55;;;;;;;8.50;2.53;;;15.90;95.60;;;;;;5007461;28;20037;-69
2022/10/09 11:19:52;;;;;;;7.05;1.80;;;15.90;95.60;;;;;;4997265;28;20050;-69
2022/10/09 11:22:48;;;;;;;9.00;1.95;;;16.00;95.30;;;;;;4989205;28;20091;-69
2022/10/09 11:25:40;;;;;;;7.60;2.92;;;16.00;95.10;;;;;;5014373;28;20410;-68
2022/10/09 11:28:17;;;;;;;5.88;2.38;;;16.10;95.10;;;;;;4991000;28;20044;-70
2022/10/09 11:30:52;;;;;;;5.97;1.58;;;16.10;95.00;;;;;;5007589;28;20526;-70
2022/10/09 11:33:44;;;;;;;6.13;2.53;;;16.10;94.80;;;;;;5005860;28;20042;-69
2022/10/09 11:36:17;;;;;;;7.93;2.25;;;16.20;94.70;;;;;;4996421;28;20134;-69
2022/10/09 11:38:47;;;;;;;6.30;1.60;;;16.20;94.80;;;;;;5004696;28;20022;-69
2022/10/09 11:41:14;;;;;;;6.97;2.00;;;16.30;94.50;;;;;;5023742;28;20120;-69
2022/10/09 11:43:55;;;;;;;4.82;2.30;;;16.40;94.20;;;;;;5009204;28;20062;-69
2022/10/09 11:46:40;;;;;;;8.63;1.90;;;16.50;94.00;;;;;;5007824;28;20113;-71
2022/10/09 11:49:21;;;;;;;7.45;2.20;;;16.50;93.90;;;;;;5006361;28;20047;-69
2022/10/09 11:52:07;;;;;;;4.88;2.00;;;16.60;94.00;;;;;;5002487;28;20026;-69
2022/10/09 11:54:34;;;;;;;5.20;1.85;;;16.60;93.90;;;;;;4996542;28;20030;-69
2022/10/09 11:57:03;;;;;;;3.25;1.60;;;16.70;93.80;;;;;;4997696;28;20052;-69
2022/10/09 11:59:35;;;;;;;8.70;2.30;;;16.70;93.90;;;;;;5000186;28;20504;-69
2022/10/09 12:02:25;;;;;;;5.32;2.40;;;16.80;93.70;;;;;;5001307;28;20065;-68
2022/10/09 12:04:51;;;;;;;5.40;1.67;;;16.80;93.80;;;;;;5006844;28;20113;-68
2022/10/09 12:07:25;;;;;;;7.00;1.95;;;16.90;93.50;;;;;;4994483;28;20034;-68
2022/10/09 12:09:57;;;;;;;6.97;1.80;;;16.90;93.30;;;;;;4999071;28;20022;-68
2022/10/09 12:12:23;;;;;;;5.60;2.17;;;17.00;92.70;;;;;;5002417;28;20030;-69
2022/10/09 12:14:51;;;;;;;5.95;1.88;;;16.90;92.80;;;;;;5006132;28;20034;-69
2022/10/09 12:17:22;;;;;;;5.18;1.83;;;16.90;92.80;;;;;;5007761;28;20034;-68
2022/10/09 12:20:16;;;;;;;3.75;1.90;;;16.90;92.90;;;;;;5004323;28;20426;-69
2022/10/09 12:22:45;;;;;;;6.35;1.70;;;16.90;92.80;;;;;;4997049;28;20084;-68
2022/10/09 12:25:37;;;;;;;3.72;1.70;;;17.00;92.80;;;;;;4994280;28;20041;-69
2022/10/09 12:28:04;;;;;;;6.07;2.05;;;17.00;92.70;;;;;;4994938;28;20030;-68
2022/10/09 12:30:38;;;;;;;4.95;2.13;;;17.00;92.50;;;;;;4984305;28;20041;-69
2022/10/09 12:33:11;;;;;;;4.28;2.03;;;17.10;92.30;;;;;;4996633;28;20037;-69
2022/10/09 12:35:41;;;;;;;6.03;2.53;;;17.10;92.20;;;;;;5005667;28;20046;-69
2022/10/09 12:38:23;;;;;;;6.30;2.58;;;17.20;92.10;;;;;;5008204;28;20045;-68
2022/10/09 12:40:51;;;;;;;6.03;2.33;;;17.20;92.00;;;;;;4994344;28;20034;-70
2022/10/09 12:43:21;;;;;;;2.80;2.00;;;17.20;91.90;;;;;;4988779;28;20049;-69
2022/10/09 12:45:49;;;;;;;6.65;2.00;;;17.20;91.80;;;;;;5002282;28;20377;-69
2022/10/09 12:48:27;;;;;;;4.55;2.00;;;17.30;91.60;;;;;;5007845;28;20052;-69
2022/10/09 12:50:53;;;;;;;3.15;2.20;;;17.30;91.40;;;;;;5012272;28;20032;-69
2022/10/09 12:53:22;;;;;;;5.40;2.67;;;17.30;91.40;;;;;;5006037;28;20019;-68
2022/10/09 12:55:59;;;;;;;6.05;2.45;;;17.30;91.40;;;;;;5011437;28;20046;-68
2022/10/09 12:58:38;;;;;;;6.93;2.28;;;17.40;91.30;;;;;;5013283;28;20065;-69
2022/10/09 13:01:09;;;;;;;7.13;2.22;;;17.50;91.40;;;;;;4993711;28;20113;-68
2022/10/09 13:03:38;;;;;;;5.47;1.80;;;17.50;91.40;;;;;;4995426;28;20026;-69